Time;durP1;ratioP1;P1;durP2;ratioP2;P2;SDS_P1;SDS_P2;PMS_P1;PMS_P2;Temp;Humidity;BMP_temperature;BMP_pressure;BME280_temperature;BME280_humidity;BME280_pressure;Samples;Min_cycle;Max_cycle;Signal;HPM_P1;HPM_P2
2023/12/11 00:00:21;;;;;;;36.60;15.90;;;;;;;-0.13;100.00;98437.54;109315;1254;71985;-63
2023/12/11 00:03:29;;;;;;;39.00;16.50;;;;;;;-0.12;100.00;98431.59;109272;1254;69285;-65
2023/12/11 00:06:17;;;;;;;39.80;16.30;;;;;;;-0.13;100.00;98427.77;109199;1254;72167;-62
2023/12/11 00:09:05;;;;;;;43.60;17.30;;;;;;;-0.11;100.00;98425.74;109237;1253;57490;-63
2023/12/11 00:11:53;;;;;;;41.40;16.00;;;;;;;-0.09;100.00;98424.58;109444;1254;60404;-64
2023/12/11 00:14:41;;;;;;;38.40;15.90;;;;;;;-0.08;100.00;98416.47;109269;1254;70972;-66
2023/12/11 00:17:29;;;;;;;41.80;16.20;;;;;;;-0.07;100.00;98417.84;109281;1253;67661;-64
2023/12/11 00:20:18;;;;;;;39.40;16.40;;;;;;;-0.05;100.00;98411.79;109216;1254;73664;-64
2023/12/11 00:23:06;;;;;;;40.40;15.20;;;;;;;-0.04;100.00;98400.02;109404;1254;59807;-65
2023/12/11 00:25:54;;;;;;;37.00;15.50;;;;;;;-0.03;100.00;98398.73;109425;1253;61048;-64
2023/12/11 00:28:47;;;;;;;34.10;13.80;;;;;;;-0.02;100.00;98399.88;109250;1253;72122;-62
2023/12/11 00:31:35;;;;;;;26.30;12.20;;;;;;;-0.01;100.00;98395.85;109419;1253;68027;-63
2023/12/11 00:34:23;;;;;;;41.20;15.70;;;;;;;-0.02;100.00;98398.66;109312;1253;71655;-65
2023/12/11 00:37:12;;;;;;;35.60;15.60;;;;;;;0.01;100.00;98388.95;109297;1253;57636;-64
2023/12/11 00:40:01;;;;;;;37.20;15.10;;;;;;;0.02;100.00;98391.85;109346;1254;60063;-64
2023/12/11 00:42:48;;;;;;;32.60;14.60;;;;;;;0.04;100.00;98394.33;109279;1254;71846;-63
2023/12/11 00:45:36;;;;;;;36.10;15.20;;;;;;;0.03;100.00;98384.12;109413;1253;66862;-63
2023/12/11 00:48:25;;;;;;;34.00;13.70;;;;;;;0.03;100.00;98378.52;109412;1254;72712;-63
2023/12/11 00:51:20;;;;;;;30.30;11.90;;;;;;;0.03;100.00;98373.13;109127;1253;57682;-62
2023/12/11 00:54:08;;;;;;;37.90;15.30;;;;;;;-0.01;100.00;98363.95;109213;1254;60222;-63
2023/12/11 00:56:56;;;;;;;32.10;13.30;;;;;;;0.03;100.00;98364.05;109202;1253;70235;-63
2023/12/11 00:59:44;;;;;;;36.30;16.10;;;;;;;0.04;100.00;98356.52;109426;1253;65809;-63
2023/12/11 01:02:31;;;;;;;33.60;14.80;;;;;;;0.07;100.00;98358.54;108459;1257;1003047;-64
2023/12/11 01:05:19;;;;;;;32.50;14.40;;;;;;;0.09;100.00;98355.98;109428;1253;57170;-64
2023/12/11 01:08:07;;;;;;;34.10;14.40;;;;;;;0.11;100.00;98357.81;109304;1253;60170;-65
2023/12/11 01:10:57;;;;;;;32.50;13.80;;;;;;;0.13;100.00;98362.05;109447;1253;72258;-64
2023/12/11 01:13:45;;;;;;;35.70;15.50;;;;;;;0.12;100.00;98355.65;109457;1253;66635;-65
2023/12/11 01:16:33;;;;;;;33.70;15.70;;;;;;;0.13;100.00;98355.59;109286;1253;71744;-66
2023/12/11 01:19:21;;;;;;;36.20;16.40;;;;;;;0.14;100.00;98351.83;109283;1253;58525;-63
2023/12/11 01:22:10;;;;;;;33.10;15.70;;;;;;;0.16;100.00;98356.28;109467;1253;61844;-64
2023/12/11 01:25:01;;;;;;;32.90;14.50;;;;;;;0.15;100.00;98354.23;109011;1257;71255;-63
2023/12/11 01:27:49;;;;;;;33.30;13.70;;;;;;;0.13;100.00;98352.60;109158;1257;68169;-64
2023/12/11 01:30:37;;;;;;;32.80;14.40;;;;;;;0.13;100.00;98342.50;109122;1257;72714;-64
2023/12/11 01:33:26;;;;;;;36.90;15.00;;;;;;;0.13;100.00;98337.05;109087;1258;57264;-66
2023/12/11 01:36:14;;;;;;;33.00;14.20;;;;;;;0.12;100.00;98334.02;109076;1257;59324;-63
2023/12/11 01:39:02;;;;;;;33.30;15.00;;;;;;;0.12;100.00;98324.25;109069;1257;73670;-64
2023/12/11 01:41:49;;;;;;;30.80;12.80;;;;;;;0.12;100.00;98321.13;108995;1258;68151;-64
2023/12/11 01:44:37;;;;;;;33.50;15.10;;;;;;;0.12;100.00;98318.84;109053;1257;71673;-64
2023/12/11 01:47:25;;;;;;;33.50;14.50;;;;;;;0.15;100.00;98309.80;109039;1258;59037;-62
2023/12/11 01:50:13;;;;;;;37.60;15.70;;;;;;;0.18;100.00;98305.20;108947;1257;59214;-65
2023/12/11 01:53:01;;;;;;;38.70;15.30;;;;;;;0.21;100.00;98302.41;108970;1258;73442;-66
2023/12/11 01:55:50;;;;;;;31.10;13.20;;;;;;;0.22;100.00;98294.70;109170;1253;66828;-64
2023/12/11 01:58:38;;;;;;;33.90;14.90;;;;;;;0.27;100.00;98294.37;109339;1253;71082;-64
2023/12/11 02:01:26;;;;;;;32.50;14.20;;;;;;;0.28;100.00;98295.02;109461;1253;57718;-66
2023/12/11 02:04:15;;;;;;;32.00;14.90;;;;;;;0.29;100.00;98292.35;109402;1253;60342;-64
2023/12/11 02:07:04;;;;;;;30.30;13.20;;;;;;;0.29;100.00;98292.12;109253;1253;72328;-65
2023/12/11 02:09:52;;;;;;;31.20;13.60;;;;;;;0.29;100.00;98286.17;109293;1256;67268;-66
2023/12/11 02:12:42;;;;;;;28.90;13.30;;;;;;;0.30;100.00;98283.54;109417;1253;73649;-63
2023/12/11 02:15:43;;;;;;;30.50;12.70;;;;;;;0.31;100.00;98279.93;109267;1253;58889;-64
2023/12/11 02:18:31;;;;;;;35.20;14.10;;;;;;;0.32;100.00;98272.20;109234;1253;59266;-63
2023/12/11 02:21:19;;;;;;;30.00;12.60;;;;;;;0.35;100.00;98263.15;109430;1253;72425;-65
2023/12/11 02:24:21;;;;;;;28.70;12.50;;;;;;;0.37;100.00;98264.39;109239;1253;67917;-64
2023/12/11 02:27:09;;;;;;;29.80;13.10;;;;;;;0.39;100.00;98266.20;109072;1253;256908;-65
2023/12/11 02:29:57;;;;;;;26.50;11.50;;;;;;;0.36;100.00;98256.60;109202;1253;58022;-64
2023/12/11 02:32:45;;;;;;;28.50;11.90;;;;;;;0.40;100.00;98261.96;109451;1253;60459;-65
2023/12/11 02:35:33;;;;;;;30.40;12.40;;;;;;;0.39;100.00;98252.97;109210;1253;72342;-65
2023/12/11 02:38:20;;;;;;;27.60;12.20;;;;;;;0.37;100.00;98251.70;109344;1253;67837;-63
2023/12/11 02:41:08;;;;;;;25.40;10.30;;;;;;;0.34;100.00;98252.01;108477;1253;1002415;-64
2023/12/11 02:43:58;;;;;;;25.80;11.90;;;;;;;0.35;100.00;98250.61;109315;1253;58791;-64
2023/12/11 02:46:46;;;;;;;27.40;11.80;;;;;;;0.35;100.00;98251.09;109242;1253;60263;-64
2023/12/11 02:49:35;;;;;;;24.90;10.10;;;;;;;0.34;100.00;98245.92;109433;1253;71558;-63
2023/12/11 02:52:24;;;;;;;27.20;11.70;;;;;;;0.33;100.00;98243.16;109226;1253;67949;-66
2023/12/11 02:55:12;;;;;;;28.90;12.30;;;;;;;0.33;100.00;98241.08;109305;1253;72713;-63
2023/12/11 02:58:02;;;;;;;26.10;12.30;;;;;;;0.33;100.00;98237.43;109426;1253;57191;-63
2023/12/11 03:00:50;;;;;;;24.60;10.50;;;;;;;0.32;100.00;98232.25;109427;1253;60911;-66
2023/12/11 03:03:38;;;;;;;26.70;11.70;;;;;;;0.32;100.00;98230.31;109312;1253;72301;-66
2023/12/11 03:06:26;;;;;;;22.30;9.70;;;;;;;0.33;100.00;98225.91;109216;1253;66777;-66
2023/12/11 03:09:14;;;;;;;24.50;10.60;;;;;;;0.32;100.00;98224.05;109410;1253;71574;-66
2023/12/11 03:12:02;;;;;;;25.10;11.10;;;;;;;0.33;100.00;98222.92;109445;1254;57439;-64
2023/12/11 03:14:50;;;;;;;23.00;10.90;;;;;;;0.35;100.00;98219.85;109334;1253;60434;-66
2023/12/11 03:17:38;;;;;;;23.60;10.90;;;;;;;0.36;100.00;98218.10;109413;1253;73151;-64
2023/12/11 03:20:26;;;;;;;25.30;11.60;;;;;;;0.38;100.00;98218.46;109440;1253;67970;-64
2023/12/11 03:23:14;;;;;;;24.70;10.40;;;;;;;0.36;100.00;98211.43;109399;1253;72818;-65
2023/12/11 03:26:02;;;;;;;25.60;10.40;;;;;;;0.35;100.00;98208.00;109426;1253;58859;-63
2023/12/11 03:28:50;;;;;;;26.80;10.80;;;;;;;0.36;100.00;98206.92;109400;1253;61650;-63
2023/12/11 03:31:37;;;;;;;27.40;11.80;;;;;;;0.35;100.00;98205.23;109309;1253;72291;-64
2023/12/11 03:34:25;;;;;;;25.20;10.80;;;;;;;0.37;100.00;98205.11;109450;1253;67971;-65
2023/12/11 03:37:13;;;;;;;26.90;10.30;;;;;;;0.38;100.00;98200.30;109240;1254;72701;-64
2023/12/11 03:40:03;;;;;;;22.60;9.40;;;;;;;0.38;100.00;98204.49;109389;1253;57479;-64
2023/12/11 03:42:51;;;;;;;26.10;11.00;;;;;;;0.39;100.00;98203.41;108543;1253;1002058;-66
2023/12/11 03:45:39;;;;;;;24.90;10.80;;;;;;;0.40;100.00;98198.80;109310;1254;72386;-65
2023/12/11 03:48:27;;;;;;;23.50;9.40;;;;;;;0.42;100.00;98196.59;109451;1253;67956;-65
2023/12/11 03:51:15;;;;;;;20.30;8.30;;;;;;;0.44;100.00;98192.59;109423;1253;72832;-65
2023/12/11 03:54:03;;;;;;;22.80;9.50;;;;;;;0.45;100.00;98189.75;109269;1253;58776;-64
2023/12/11 03:56:51;;;;;;;21.90;9.00;;;;;;;0.46;100.00;98187.22;109300;1253;60263;-64
2023/12/11 03:59:40;;;;;;;24.20;9.60;;;;;;;0.48;100.00;98183.45;109475;1253;71359;-63
2023/12/11 04:02:28;;;;;;;22.50;9.70;;;;;;;0.50;100.00;98180.50;109320;1253;66402;-63
2023/12/11 04:05:17;;;;;;;21.00;8.00;;;;;;;0.54;100.00;98176.95;109412;1253;72012;-63
2023/12/11 04:08:05;;;;;;;20.00;8.20;;;;;;;0.55;100.00;98176.17;109406;1253;58877;-66
2023/12/11 04:10:53;;;;;;;18.90;7.50;;;;;;;0.58;100.00;98175.95;109372;1253;61221;-65
2023/12/11 04:13:41;;;;;;;18.10;8.20;;;;;;;0.60;100.00;98175.69;109181;1256;72369;-65
2023/12/11 04:16:29;;;;;;;20.20;8.80;;;;;;;0.63;100.00;98172.14;109480;1255;66615;-65
2023/12/11 04:19:16;;;;;;;20.80;8.90;;;;;;;0.66;100.00;98170.34;109504;1256;72643;-65
2023/12/11 04:22:06;;;;;;;18.00;8.00;;;;;;;0.71;100.00;98167.45;109235;1256;57451;-64
2023/12/11 04:24:54;;;;;;;19.60;8.00;;;;;;;0.74;100.00;98168.95;109159;1257;61354;-66
2023/12/11 04:27:42;;;;;;;21.40;9.10;;;;;;;0.77;100.00;98164.42;109147;1257;71970;-67
2023/12/11 04:30:30;;;;;;;20.60;9.10;;;;;;;0.79;100.00;98164.27;109186;1256;67666;-64
2023/12/11 04:33:17;;;;;;;21.70;8.60;;;;;;;0.78;100.00;98158.90;109162;1256;72757;-64
2023/12/11 04:36:08;;;;;;;20.40;8.60;;;;;;;0.86;100.00;98162.94;109121;1256;59501;-64
2023/12/11 04:38:56;;;;;;;18.60;8.30;;;;;;;0.90;100.00;98162.27;109106;1259;60044;-66
2023/12/11 04:41:44;;;;;;;21.40;9.40;;;;;;;0.93;100.00;98156.86;109168;1256;72016;-64
2023/12/11 04:44:33;;;;;;;22.90;8.40;;;;;;;0.95;100.00;98151.44;109313;1256;66466;-65
2023/12/11 04:47:20;;;;;;;20.50;8.50;;;;;;;0.93;100.00;98145.83;109130;1255;73730;-66
2023/12/11 04:50:11;;;;;;;19.90;8.60;;;;;;;0.98;100.00;98147.80;109294;1255;58569;-64
2023/12/11 04:53:00;;;;;;;22.50;8.70;;;;;;;0.97;100.00;98146.42;109210;1256;58762;-69
2023/12/11 04:55:47;;;;;;;19.90;8.50;;;;;;;0.97;100.00;98141.19;109300;1255;72182;-69
2023/12/11 04:58:37;;;;;;;17.90;7.50;;;;;;;0.95;100.00;98130.88;109296;1255;67781;-66
2023/12/11 05:01:26;;;;;;;18.40;7.90;;;;;;;1.01;100.00;98127.83;109255;1255;73439;-67
2023/12/11 05:04:14;;;;;;;17.00;7.30;;;;;;;1.03;100.00;98124.78;109101;1255;58224;-67
2023/12/11 05:07:04;;;;;;;16.80;7.20;;;;;;;1.03;100.00;98119.83;109181;1255;61224;-63
2023/12/11 05:09:52;;;;;;;17.40;7.00;;;;;;;1.06;100.00;98118.11;109247;1255;72269;-66
2023/12/11 05:12:40;;;;;;;16.60;6.40;;;;;;;1.03;100.00;98109.55;109116;1256;66656;-64
2023/12/11 05:15:28;;;;;;;16.40;7.10;;;;;;;1.09;100.00;98114.56;109226;1255;72436;-65
2023/12/11 05:18:16;;;;;;;14.00;6.30;;;;;;;1.11;100.00;98113.02;109143;1255;59594;-64
2023/12/11 05:21:09;;;;;;;17.30;7.50;;;;;;;1.13;100.00;98114.73;109018;1255;61293;-66
2023/12/11 05:23:57;;;;;;;16.40;7.30;;;;;;;1.16;100.00;98112.50;109292;1255;73120;-65
2023/12/11 05:26:45;;;;;;;18.30;7.50;;;;;;;1.18;100.00;98113.38;108983;1256;67814;-65
2023/12/11 05:29:33;;;;;;;16.20;7.00;;;;;;;1.22;100.00;98111.92;109242;1255;73269;-65
2023/12/11 05:32:20;;;;;;;13.80;6.60;;;;;;;1.25;100.00;98111.18;109197;1255;58571;-65
2023/12/11 05:35:08;;;;;;;16.50;8.50;;;;;;;1.27;100.00;98112.94;109179;1256;60067;-65
2023/12/11 05:37:57;;;;;;;15.90;7.60;;;;;;;1.29;100.00;98110.02;109043;1257;70696;-65
2023/12/11 05:40:48;;;;;;;16.80;8.10;;;;;;;1.31;100.00;98112.10;109010;1257;67975;-65
2023/12/11 05:43:39;;;;;;;17.90;8.30;;;;;;;1.33;100.00;98110.38;109028;1257;73816;-64
2023/12/11 05:46:28;;;;;;;18.40;8.20;;;;;;;1.35;100.00;98108.65;109038;1257;57957;-66
2023/12/11 05:49:16;;;;;;;16.00;7.70;;;;;;;1.39;100.00;98109.66;108966;1257;58699;-67
2023/12/11 05:52:04;;;;;;;17.30;7.70;;;;;;;1.42;100.00;98101.61;108977;1257;73830;-63
2023/12/11 05:54:53;;;;;;;17.00;7.30;;;;;;;1.44;100.00;98103.84;109102;1257;66644;-62
2023/12/11 05:57:40;;;;;;;14.80;7.10;;;;;;;1.46;100.00;98100.91;108291;1257;1003122;-64
2023/12/11 06:00:28;;;;;;;15.30;7.50;;;;;;;1.47;100.00;98104.18;109119;1257;57804;-64
2023/12/11 06:03:16;;;;;;;16.40;7.60;;;;;;;1.48;100.00;98101.66;109073;1257;61278;-66
2023/12/11 06:06:14;;;;;;;15.80;7.50;;;;;;;1.50;100.00;98100.08;109010;1257;70668;-64
2023/12/11 06:09:03;;;;;;;14.80;6.80;;;;;;;1.55;100.00;98100.83;108952;1257;66388;-63
2023/12/11 06:11:50;;;;;;;19.80;7.70;;;;;;;1.57;100.00;98100.52;108927;1259;72706;-63
2023/12/11 06:14:42;;;;;;;14.20;6.80;;;;;;;1.62;100.00;98099.84;106017;1256;1003052;-65
2023/12/11 06:17:35;;;;;;;19.00;7.40;;;;;;;1.65;100.00;98102.02;108982;1257;58705;-66
2023/12/11 06:20:23;;;;;;;16.00;7.10;;;;;;;1.67;100.00;98100.59;109035;1257;72541;-64
2023/12/11 06:23:12;;;;;;;15.40;6.90;;;;;;;1.70;100.00;98096.06;109073;1257;67797;-62
2023/12/11 06:25:59;;;;;;;13.70;6.00;;;;;;;1.74;100.00;98098.58;109029;1257;72814;-63
2023/12/11 06:28:48;;;;;;;17.50;7.60;;;;;;;1.77;100.00;98093.31;109059;1257;59957;-63
2023/12/11 06:31:35;;;;;;;15.10;6.80;;;;;;;1.79;100.00;98091.88;108971;1257;59299;-63
2023/12/11 06:34:23;;;;;;;19.80;7.10;;;;;;;1.83;100.00;98091.61;109061;1257;72365;-63
2023/12/11 06:37:11;;;;;;;14.20;6.80;;;;;;;1.85;100.00;98092.52;109095;1257;67094;-63
2023/12/11 06:40:00;;;;;;;16.70;7.40;;;;;;;1.86;100.00;98087.55;108973;1257;72788;-64
2023/12/11 06:42:48;;;;;;;15.40;6.80;;;;;;;1.89;100.00;98082.81;109091;1257;57039;-63
2023/12/11 06:45:36;;;;;;;17.70;7.80;;;;;;;1.92;100.00;98085.06;109128;1257;61291;-64
2023/12/11 06:48:25;;;;;;;14.30;6.60;;;;;;;1.93;100.00;98079.90;109182;1257;72503;-63
2023/12/11 06:51:16;;;;;;;16.70;7.00;;;;;;;1.94;100.00;98078.56;109220;1255;67621;-65
2023/12/11 06:54:18;;;;;;;17.70;7.10;;;;;;;1.97;100.00;98078.89;109300;1255;71174;-65
2023/12/11 06:57:06;;;;;;;18.00;8.00;;;;;;;1.99;100.00;98072.59;109288;1255;57190;-66
2023/12/11 06:59:54;;;;;;;14.60;6.90;;;;;;;2.02;100.00;98075.20;109201;1256;61193;-65
2023/12/11 07:02:42;;;;;;;16.70;7.80;;;;;;;2.03;100.00;98075.66;109229;1255;72244;-63
2023/12/11 07:05:30;;;;;;;18.70;7.80;;;;;;;2.07;100.00;98078.70;109232;1256;67783;-64
2023/12/11 07:08:18;;;;;;;20.10;8.50;;;;;;;2.07;100.00;98076.39;109250;1257;72705;-66
2023/12/11 07:11:07;;;;;;;20.20;8.30;;;;;;;2.09;100.00;98073.29;109266;1255;58536;-64
2023/12/11 07:13:55;;;;;;;14.40;7.10;;;;;;;2.11;100.00;98072.46;109274;1255;61060;-66
2023/12/11 07:16:43;;;;;;;14.60;6.30;;;;;;;2.11;100.00;98071.58;109114;1256;73166;-67
2023/12/11 07:19:31;;;;;;;19.40;8.70;;;;;;;2.12;100.00;98071.88;109092;1257;69280;-70
2023/12/11 07:22:20;;;;;;;26.20;12.10;;;;;;;2.12;100.00;98069.90;109262;1256;72620;-67
2023/12/11 07:25:08;;;;;;;16.90;7.80;;;;;;;2.12;100.00;98068.33;109192;1255;58697;-67
2023/12/11 07:27:55;;;;;;;21.70;9.20;;;;;;;2.15;100.00;98072.17;109126;1257;60053;-67
2023/12/11 07:30:43;;;;;;;22.10;9.20;;;;;;;2.16;100.00;98072.03;109139;1257;72521;-67
2023/12/11 07:33:32;;;;;;;22.10;11.00;;;;;;;2.19;100.00;98069.03;109268;1256;67681;-67
2023/12/11 07:36:21;;;;;;;17.10;8.00;;;;;;;2.24;100.00;98059.73;109136;1254;71182;-66
2023/12/11 07:39:09;;;;;;;22.00;8.60;;;;;;;2.23;100.00;98069.27;109267;1254;59534;-68
2023/12/11 07:41:59;;;;;;;17.20;8.70;;;;;;;2.22;100.00;98048.19;109357;1254;61259;-67
2023/12/11 07:44:47;;;;;;;19.50;8.90;;;;;;;2.26;100.00;98049.65;109399;1254;72196;-69
2023/12/11 07:47:35;;;;;;;19.70;9.80;;;;;;;2.28;100.00;98054.52;109409;1254;66311;-67
2023/12/11 07:50:25;;;;;;;19.20;9.00;;;;;;;2.32;100.00;98046.39;109376;1254;71098;-67
2023/12/11 07:53:13;;;;;;;15.70;7.40;;;;;;;2.35;100.00;98046.52;109206;1254;56945;-66
2023/12/11 07:56:00;;;;;;;17.50;8.40;;;;;;;2.34;100.00;98042.89;109371;1254;61097;-64
2023/12/11 07:58:49;;;;;;;18.60;8.70;;;;;;;2.35;100.00;98046.27;109397;1254;72018;-64
2023/12/11 08:01:38;;;;;;;18.50;8.20;;;;;;;2.37;100.00;98049.29;109309;1254;68983;-64
2023/12/11 08:04:26;;;;;;;17.30;8.40;;;;;;;2.39;100.00;98043.92;109312;1254;72576;-66
2023/12/11 08:07:15;;;;;;;19.40;9.10;;;;;;;2.42;100.00;98039.17;109256;1254;57214;-68
2023/12/11 08:10:04;;;;;;;17.90;8.80;;;;;;;2.43;100.00;98032.41;109409;1254;60073;-65
2023/12/11 08:12:52;;;;;;;18.20;8.40;;;;;;;2.46;100.00;98032.22;109248;1257;71920;-63
2023/12/11 08:15:41;;;;;;;22.30;9.90;;;;;;;2.44;100.00;98026.21;109378;1256;68438;-65
2023/12/11 08:18:29;;;;;;;22.20;10.10;;;;;;;2.50;100.00;98028.05;109149;1254;70199;-64
2023/12/11 08:21:17;;;;;;;18.10;9.30;;;;;;;2.54;100.00;98031.21;109396;1254;58095;-64
2023/12/11 08:24:05;;;;;;;20.10;9.60;;;;;;;2.58;100.00;98033.75;109295;1254;59948;-66
2023/12/11 08:26:54;;;;;;;19.00;7.80;;;;;;;2.62;100.00;98036.35;109256;1254;71975;-65
2023/12/11 08:29:43;;;;;;;18.50;7.90;;;;;;;2.66;100.00;98041.17;109022;1256;67959;-64
2023/12/11 08:32:31;;;;;;;21.10;9.70;;;;;;;2.68;100.00;98043.11;109184;1256;71096;-64
2023/12/11 08:35:19;;;;;;;22.30;10.80;;;;;;;2.66;100.00;98035.20;109261;1255;58747;-64
2023/12/11 08:38:07;;;;;;;23.40;10.40;;;;;;;2.67;100.00;98035.84;109316;1256;60081;-67
2023/12/11 08:40:55;;;;;;;21.20;10.80;;;;;;;2.72;100.00;98033.36;109261;1256;72064;-65
2023/12/11 08:43:43;;;;;;;20.70;11.00;;;;;;;2.75;100.00;98039.06;109117;1254;68036;-65
2023/12/11 08:46:31;;;;;;;20.40;10.20;;;;;;;2.77;100.00;98041.56;109385;1254;73765;-65
2023/12/11 08:49:19;;;;;;;20.40;10.90;;;;;;;2.81;100.00;98037.91;109068;1254;57403;-65
2023/12/11 08:52:08;;;;;;;22.10;10.80;;;;;;;2.83;100.00;98033.17;109338;1255;60374;-63
2023/12/11 08:54:55;;;;;;;20.60;10.70;;;;;;;2.86;100.00;98033.52;109381;1255;73337;-64
2023/12/11 08:57:45;;;;;;;22.00;10.60;;;;;;;2.89;100.00;98034.81;109332;1254;67781;-64
2023/12/11 09:00:33;;;;;;;24.70;12.70;;;;;;;2.94;100.00;98027.58;109274;1255;72410;-65
2023/12/11 09:03:21;;;;;;;25.20;12.50;;;;;;;2.98;100.00;98026.42;109194;1255;58706;-67
2023/12/11 09:06:09;;;;;;;22.40;11.70;;;;;;;2.98;100.00;98023.59;106922;1255;1003045;-64
2023/12/11 09:08:57;;;;;;;22.60;11.40;;;;;;;2.96;100.00;98026.71;109260;1257;72165;-64
2023/12/11 09:11:45;;;;;;;25.30;13.00;;;;;;;2.98;100.00;98019.25;109263;1258;68686;-64
2023/12/11 09:14:34;;;;;;;26.70;13.00;;;;;;;3.03;100.00;98020.41;109209;1255;72738;-65
2023/12/11 09:17:22;;;;;;;24.00;10.90;;;;;;;3.06;100.00;98020.33;109133;1257;61005;-66
2023/12/11 09:20:10;;;;;;;27.30;13.20;;;;;;;3.05;100.00;98017.30;106986;1257;1014967;-64
2023/12/11 09:22:59;;;;;;;22.60;11.70;;;;;;;3.04;100.00;98016.46;109283;1256;72265;-64
2023/12/11 09:25:48;;;;;;;30.20;13.50;;;;;;;3.03;100.00;98014.10;109070;1257;66704;-67
2023/12/11 09:28:39;;;;;;;25.20;12.90;;;;;;;3.01;100.00;98014.08;109222;1255;70962;-64
2023/12/11 09:31:38;;;;;;;29.30;13.20;;;;;;;2.99;100.00;98005.67;109221;1255;56982;-65
2023/12/11 09:34:26;;;;;;;25.00;13.10;;;;;;;3.00;100.00;98003.95;109300;1255;58993;-64
2023/12/11 09:37:21;;;;;;;27.20;13.00;;;;;;;3.07;100.00;98008.20;109248;1256;71045;-65
2023/12/11 09:40:11;;;;;;;26.50;12.80;;;;;;;3.11;100.00;98011.20;108452;1256;1002829;-65
2023/12/11 09:43:02;;;;;;;25.80;12.10;;;;;;;3.17;100.00;98005.49;109092;1256;72765;-65
2023/12/11 09:45:51;;;;;;;25.40;12.20;;;;;;;3.20;100.00;98002.05;109274;1255;58611;-66
2023/12/11 09:48:39;;;;;;;25.40;12.50;;;;;;;3.21;100.00;98001.59;109233;1256;58756;-62
2023/12/11 09:51:27;;;;;;;25.50;12.60;;;;;;;3.21;100.00;98005.86;109219;1256;71552;-64
2023/12/11 09:54:15;;;;;;;26.90;12.60;;;;;;;3.17;100.00;98004.37;109268;1256;66394;-64
2023/12/11 09:57:05;;;;;;;28.60;13.80;;;;;;;3.14;100.00;98002.56;109289;1255;72652;-66
2023/12/11 09:59:53;;;;;;;24.40;13.40;;;;;;;3.09;100.00;97999.11;109277;1255;57481;-64
2023/12/11 10:02:42;;;;;;;25.30;13.30;;;;;;;3.04;100.00;97996.27;109345;1256;60326;-63
2023/12/11 10:05:59;;;;;;;26.00;12.60;;;;;;;3.04;100.00;97989.96;109185;1263;73230;-64
2023/12/11 10:08:49;;;;;;;21.10;10.30;;;;;;;3.04;100.00;97986.99;108932;1263;66306;-66
2023/12/11 10:11:37;;;;;;;30.30;14.10;;;;;;;3.01;100.00;97981.30;108944;1265;72368;-70
2023/12/11 10:14:28;;;;;;;26.90;12.90;;;;;;;2.99;100.00;97978.66;108826;1265;58602;-64
2023/12/11 10:17:17;;;;;;;24.60;12.50;;;;;;;2.96;100.00;97971.39;108658;1266;60055;-66
2023/12/11 10:20:16;;;;;;;23.60;12.60;;;;;;;2.96;100.00;97972.25;108627;1266;72021;-64
2023/12/11 10:23:12;;;;;;;25.50;11.30;;;;;;;3.00;100.00;97967.39;108586;1265;67809;-64
2023/12/11 10:26:06;;;;;;;26.40;11.90;;;;;;;3.04;100.00;97968.63;108610;1266;73619;-64
2023/12/11 10:28:54;;;;;;;22.40;10.40;;;;;;;3.04;100.00;97966.55;108572;1266;59966;-64
2023/12/11 10:31:42;;;;;;;26.20;13.30;;;;;;;3.01;100.00;97967.13;108658;1265;60045;-65
2023/12/11 10:34:51;;;;;;;28.80;13.50;;;;;;;3.03;100.00;97965.20;108593;1265;71116;-63
2023/12/11 10:37:39;;;;;;;26.60;13.60;;;;;;;3.11;100.00;97965.27;108799;1263;68903;-66
2023/12/11 10:40:41;;;;;;;27.90;13.70;;;;;;;3.16;100.00;97965.42;108802;1263;71482;-66
2023/12/11 10:43:44;;;;;;;28.90;14.00;;;;;;;3.19;100.00;97965.87;108837;1263;57221;-65
2023/12/11 10:46:37;;;;;;;30.90;15.50;;;;;;;3.20;100.00;97961.91;108711;1263;60066;-64
2023/12/11 10:49:25;;;;;;;32.00;14.00;;;;;;;3.19;100.00;97960.42;108803;1263;70674;-64
2023/12/11 10:52:14;;;;;;;29.80;13.00;;;;;;;3.16;100.00;97957.52;108827;1263;67589;-64
2023/12/11 10:55:04;;;;;;;31.70;15.40;;;;;;;3.19;100.00;97955.73;108797;1264;71155;-64
2023/12/11 10:57:53;;;;;;;29.40;13.10;;;;;;;3.15;100.00;97950.20;108644;1263;57817;-65
2023/12/11 11:00:41;;;;;;;27.60;12.40;;;;;;;3.19;100.00;97948.35;108688;1263;61572;-64
2023/12/11 11:03:30;;;;;;;24.80;11.30;;;;;;;3.19;100.00;97950.08;108817;1264;73340;-68
2023/12/11 11:06:21;;;;;;;31.20;13.90;;;;;;;3.18;100.00;97943.14;108840;1263;67937;-64
2023/12/11 11:09:13;;;;;;;31.80;14.30;;;;;;;3.22;100.00;97942.69;108782;1263;72414;-65
2023/12/11 11:12:11;;;;;;;25.70;10.80;;;;;;;3.27;100.00;97937.89;108757;1263;57398;-68
2023/12/11 11:14:59;;;;;;;23.30;10.50;;;;;;;3.31;100.00;97941.29;107316;1263;1002677;-63
2023/12/11 11:18:06;;;;;;;30.10;13.00;;;;;;;3.36;100.00;97939.41;108749;1263;70693;-64
2023/12/11 11:21:12;;;;;;;28.10;12.50;;;;;;;3.38;100.00;97935.96;108721;1263;67413;-66
2023/12/11 11:24:00;;;;;;;27.60;12.90;;;;;;;3.38;100.00;97936.42;108792;1263;72613;-63
2023/12/11 11:26:48;;;;;;;22.60;9.80;;;;;;;3.41;100.00;97937.77;108704;1263;57298;-66
2023/12/11 11:29:38;;;;;;;25.60;12.10;;;;;;;3.41;100.00;97942.92;108776;1263;57841;-64
2023/12/11 11:32:56;;;;;;;28.30;12.30;;;;;;;3.34;100.00;97941.38;108837;1263;70812;-65
2023/12/11 11:35:54;;;;;;;25.00;11.60;;;;;;;3.34;100.00;97942.73;108658;1263;68636;-64
2023/12/11 11:38:56;;;;;;;29.40;12.20;;;;;;;3.35;100.00;97944.27;108779;1263;72419;-66
2023/12/11 11:41:44;;;;;;;23.30;10.10;;;;;;;3.38;100.00;97940.46;108756;1263;58321;-66
2023/12/11 11:44:33;;;;;;;25.00;12.40;;;;;;;3.39;100.00;97940.20;108800;1263;60708;-64
2023/12/11 11:47:20;;;;;;;27.50;13.00;;;;;;;3.53;100.00;97941.52;108670;1263;71962;-65
2023/12/11 11:50:13;;;;;;;27.30;12.20;;;;;;;3.69;100.00;97941.10;108743;1263;67083;-65
2023/12/11 11:53:08;;;;;;;29.10;13.70;;;;;;;3.74;100.00;97942.08;108783;1265;71432;-65
2023/12/11 11:56:00;;;;;;;27.00;13.70;;;;;;;3.77;100.00;97942.75;108618;1264;57375;-65
2023/12/11 11:58:48;;;;;;;29.80;12.30;;;;;;;3.79;100.00;97940.30;108763;1263;58781;-64
2023/12/11 12:01:51;;;;;;;29.50;13.40;;;;;;;3.73;100.00;97940.61;108745;1263;73282;-66
2023/12/11 12:04:40;;;;;;;27.40;12.70;;;;;;;3.66;100.00;97933.84;108686;1263;69182;-64
2023/12/11 12:07:29;;;;;;;28.60;12.90;;;;;;;3.66;100.00;97935.25;108737;1263;72417;-64
2023/12/11 12:10:17;;;;;;;30.50;13.80;;;;;;;3.63;100.00;97933.38;108774;1263;59751;-65
2023/12/11 12:13:06;;;;;;;29.70;14.60;;;;;;;3.56;100.00;97922.52;108682;1263;59065;-65
2023/12/11 12:15:54;;;;;;;26.70;13.60;;;;;;;3.57;100.00;97926.27;108809;1263;73084;-65
2023/12/11 12:18:49;;;;;;;28.10;12.40;;;;;;;3.59;100.00;97927.70;108730;1263;67756;-65
2023/12/11 12:21:56;;;;;;;25.60;12.30;;;;;;;3.59;100.00;97925.61;108617;1263;72426;-65
2023/12/11 12:24:48;;;;;;;27.70;13.40;;;;;;;3.62;100.00;97923.86;108548;1268;56913;-65
2023/12/11 12:27:36;;;;;;;25.40;11.80;;;;;;;3.65;100.00;97923.77;108674;1263;61054;-66
2023/12/11 12:30:27;;;;;;;28.70;13.10;;;;;;;3.65;100.00;97926.05;108529;1263;72909;-64
2023/12/11 12:33:18;;;;;;;29.50;14.30;;;;;;;3.63;100.00;97928.34;108738;1263;67681;-66
2023/12/11 12:36:06;;;;;;;31.50;14.60;;;;;;;3.59;100.00;97930.71;108745;1263;72751;-64
2023/12/11 12:38:54;;;;;;;35.00;16.80;;;;;;;3.53;100.00;97931.33;108792;1263;57292;-65
2023/12/11 12:41:42;;;;;;;37.40;18.00;;;;;;;3.53;100.00;97934.05;108641;1264;60141;-66
2023/12/11 12:44:37;;;;;;;32.70;15.40;;;;;;;3.51;100.00;97923.67;108670;1263;73411;-66
2023/12/11 12:47:25;;;;;;;32.40;14.50;;;;;;;3.48;100.00;97930.95;108674;1263;68669;-67
2023/12/11 12:50:23;;;;;;;30.40;14.60;;;;;;;3.42;100.00;97929.30;108711;1263;73428;-68
2023/12/11 12:53:13;;;;;;;32.50;13.30;;;;;;;3.34;100.00;97930.64;108038;1263;1002566;-67